Time;durP1;ratioP1;P1;durP2;ratioP2;P2;SDS_P1;SDS_P2;PMS_P1;PMS_P2;Temp;Humidity;BMP_temperature;BMP_pressure;BME280_temperature;BME280_humidity;BME280_pressure;Samples;Min_cycle;Max_cycle;Signal;HPM_P1;HPM_P2
2021/03/26 00:01:31;;;;;;;11.60;7.03;;;4.80;88.90;;;;;;5024491;28;20095;-79
2021/03/26 00:04:00;;;;;;;15.68;7.78;;;4.80;89.00;;;;;;5019702;28;20038;-79
2021/03/26 00:06:29;;;;;;;14.07;6.95;;;4.90;89.10;;;;;;5027781;28;20041;-79
2021/03/26 00:08:56;;;;;;;12.57;7.13;;;5.00;89.10;;;;;;5020711;28;20042;-79
2021/03/26 00:11:24;;;;;;;11.20;7.05;;;5.00;88.90;;;;;;5025473;28;20041;-79
2021/03/26 00:13:50;;;;;;;17.63;7.28;;;5.10;88.90;;;;;;5013608;28;20061;-79
2021/03/26 00:16:18;;;;;;;15.57;7.13;;;5.10;88.70;;;;;;5028657;28;20041;-79
2021/03/26 00:18:44;;;;;;;12.27;6.78;;;5.10;88.50;;;;;;5024688;28;20058;-78
2021/03/26 00:21:10;;;;;;;11.73;6.63;;;5.20;88.60;;;;;;5027074;28;20108;-78
2021/03/26 00:23:36;;;;;;;11.52;7.10;;;5.20;88.50;;;;;;5029875;28;20163;-79
2021/03/26 00:26:03;;;;;;;14.93;7.43;;;5.30;88.50;;;;;;5021713;28;20045;-79
2021/03/26 00:28:29;;;;;;;16.40;7.50;;;5.40;88.50;;;;;;5031333;28;20045;-79
2021/03/26 00:30:55;;;;;;;10.68;6.63;;;5.40;88.40;;;;;;5024346;28;20095;-79
2021/03/26 00:33:22;;;;;;;15.52;7.20;;;5.40;88.40;;;;;;5023462;28;20520;-79
2021/03/26 00:35:48;;;;;;;10.90;6.55;;;5.50;88.50;;;;;;5021794;28;20041;-79
2021/03/26 00:38:15;;;;;;;12.02;6.28;;;5.50;88.30;;;;;;5028058;28;20120;-79
2021/03/26 00:40:42;;;;;;;10.30;5.28;;;5.50;88.30;;;;;;5022641;28;20037;-79
2021/03/26 00:43:08;;;;;;;10.63;5.88;;;5.60;88.30;;;;;;5027014;28;20339;-79
2021/03/26 00:45:36;;;;;;;9.30;6.45;;;5.60;88.80;;;;;;5023205;28;20544;-79
2021/03/26 00:48:04;;;;;;;15.18;6.72;;;5.60;88.10;;;;;;5028951;28;20037;-79
2021/03/26 00:50:32;;;;;;;11.88;5.50;;;5.60;88.00;;;;;;5022740;28;20041;-78
2021/03/26 00:53:00;;;;;;;7.72;5.35;;;5.60;88.10;;;;;;5022353;28;20115;-78
2021/03/26 00:55:27;;;;;;;11.77;5.30;;;5.60;88.10;;;;;;5023885;28;20112;-78
2021/03/26 00:57:52;;;;;;;9.75;5.35;;;5.60;88.20;;;;;;5033489;28;20033;-78
2021/03/26 01:00:22;;;;;;;10.88;6.30;;;5.60;88.10;;;;;;5019521;28;20262;-79
2021/03/26 01:02:49;;;;;;;15.52;5.85;;;5.60;88.20;;;;;;5030658;28;20053;-78
2021/03/26 01:05:18;;;;;;;11.27;5.55;;;5.60;88.80;;;;;;5027918;28;20037;-78
2021/03/26 01:07:48;;;;;;;9.07;5.00;;;5.60;88.10;;;;;;5035445;28;20057;-78
2021/03/26 01:10:17;;;;;;;13.73;5.80;;;5.60;88.10;;;;;;5023950;28;20056;-79
2021/03/26 01:12:43;;;;;;;15.55;5.75;;;5.60;88.00;;;;;;5019407;28;20458;-79
2021/03/26 01:15:18;;;;;;;9.85;4.90;;;5.70;88.10;;;;;;5041484;28;20058;-79
2021/03/26 01:17:48;;;;;;;12.95;5.75;;;5.70;88.00;;;;;;5027399;28;20049;-80
2021/03/26 01:20:17;;;;;;;8.35;5.30;;;5.70;88.10;;;;;;5034373;28;20166;-79
2021/03/26 01:22:43;;;;;;;9.70;5.20;;;5.70;88.20;;;;;;5027183;28;20041;-79
2021/03/26 01:25:15;;;;;;;8.35;4.85;;;5.70;88.10;;;;;;5030422;28;20048;-79
2021/03/26 01:27:40;;;;;;;12.57;5.35;;;5.80;88.20;;;;;;5027744;28;20072;-79
2021/03/26 01:30:11;;;;;;;10.77;5.38;;;5.80;88.10;;;;;;5032145;28;20033;-79
2021/03/26 01:32:39;;;;;;;10.75;6.13;;;5.90;88.00;;;;;;5020905;28;20084;-79
2021/03/26 01:35:12;;;;;;;12.25;5.40;;;5.90;88.00;;;;;;5028689;28;20045;-79
2021/03/26 01:37:39;;;;;;;12.13;5.03;;;6.00;88.00;;;;;;5019970;28;20037;-79
2021/03/26 01:40:10;;;;;;;10.45;5.25;;;6.00;87.90;;;;;;5031470;28;20052;-79
2021/03/26 01:42:37;;;;;;;12.38;5.95;;;6.00;87.80;;;;;;5020183;28;20398;-79
2021/03/26 01:45:09;;;;;;;11.95;5.43;;;6.00;87.60;;;;;;5029050;28;20658;-79
2021/03/26 01:47:35;;;;;;;11.43;5.50;;;6.00;87.60;;;;;;5028697;28;20033;-79
2021/03/26 01:50:02;;;;;;;11.23;5.75;;;6.00;87.70;;;;;;5029938;28;20040;-79
2021/03/26 01:52:28;;;;;;;10.68;5.80;;;6.00;87.60;;;;;;5025027;28;20049;-79
2021/03/26 01:54:54;;;;;;;10.75;6.70;;;6.00;87.60;;;;;;5030881;28;20179;-79
2021/03/26 01:57:20;;;;;;;11.55;5.85;;;6.00;87.70;;;;;;5031926;28;20030;-79
2021/03/26 01:59:45;;;;;;;8.38;5.72;;;6.00;87.90;;;;;;5025334;28;20428;-79
2021/03/26 02:02:21;;;;;;;12.57;6.65;;;6.00;87.90;;;;;;5030285;28;20455;-79
2021/03/26 02:04:48;;;;;;;14.57;6.13;;;6.10;87.90;;;;;;5019558;28;20543;-78
2021/03/26 02:07:19;;;;;;;13.93;6.60;;;6.10;87.90;;;;;;5026166;28;20080;-79
2021/03/26 02:09:45;;;;;;;15.02;7.25;;;6.00;87.80;;;;;;5038195;28;20146;-79
2021/03/26 02:12:28;;;;;;;14.43;7.80;;;6.10;87.90;;;;;;5043712;28;20057;-79
2021/03/26 02:15:04;;;;;;;12.00;7.10;;;6.10;88.00;;;;;;5019637;28;20036;-79
2021/03/26 02:17:33;;;;;;;15.45;7.70;;;6.20;88.20;;;;;;5033081;28;20557;-79
2021/03/26 02:20:28;;;;;;;13.55;8.18;;;6.20;88.20;;;;;;5024701;28;20121;-79
2021/03/26 02:22:59;;;;;;;13.48;8.10;;;6.30;88.20;;;;;;5013119;28;20285;-79
2021/03/26 02:25:25;;;;;;;15.07;8.57;;;6.30;88.30;;;;;;5022335;28;20041;-79
2021/03/26 02:27:51;;;;;;;17.23;9.20;;;6.30;88.30;;;;;;5030218;28;20046;-79
2021/03/26 02:30:24;;;;;;;19.20;9.57;;;6.30;88.30;;;;;;5018418;28;20069;-79
2021/03/26 02:32:52;;;;;;;16.88;9.73;;;6.40;88.40;;;;;;5023601;28;20515;-79
2021/03/26 02:35:29;;;;;;;17.35;9.30;;;6.40;88.60;;;;;;5036185;28;20061;-79
2021/03/26 02:38:19;;;;;;;16.17;9.88;;;6.30;88.60;;;;;;5030764;28;20037;-79
2021/03/26 02:40:51;;;;;;;15.73;9.90;;;6.40;88.90;;;;;;5035419;28;20041;-79
2021/03/26 02:43:47;;;;;;;14.32;11.20;;;6.40;89.00;;;;;;5025691;28;20045;-79
2021/03/26 02:46:21;;;;;;;19.35;11.05;;;6.40;89.20;;;;;;5033035;28;20041;-79
2021/03/26 02:49:00;;;;;;;16.88;11.07;;;6.40;89.10;;;;;;5029262;28;20052;-78
2021/03/26 02:51:34;;;;;;;18.25;11.70;;;6.40;89.20;;;;;;5013499;28;20054;-79
2021/03/26 02:54:35;;;;;;;16.88;12.38;;;6.40;89.30;;;;;;5025266;28;20055;-79
2021/03/26 02:57:10;;;;;;;21.85;12.52;;;6.40;89.40;;;;;;5001192;28;20478;-79
2021/03/26 02:59:51;;;;;;;21.17;12.65;;;6.50;89.50;;;;;;5041075;28;20444;-79
2021/03/26 03:02:22;;;;;;;21.00;13.73;;;6.40;89.70;;;;;;5038428;28;20036;-79
2021/03/26 03:04:55;;;;;;;18.33;13.63;;;6.50;89.80;;;;;;5025820;28;20037;-79
2021/03/26 03:07:26;;;;;;;19.27;12.90;;;6.50;89.80;;;;;;5020568;28;20034;-79
2021/03/26 03:09:56;;;;;;;21.08;13.68;;;6.40;89.80;;;;;;5018685;28;20121;-79
2021/03/26 03:12:30;;;;;;;22.92;15.13;;;6.50;89.90;;;;;;5025920;28;20076;-79
2021/03/26 03:15:24;;;;;;;23.48;16.00;;;6.50;90.00;;;;;;5029712;28;20338;-79
2021/03/26 03:18:12;;;;;;;21.23;15.65;;;6.50;90.00;;;;;;5024752;28;20037;-79
2021/03/26 03:20:46;;;;;;;21.67;15.73;;;6.50;90.20;;;;;;5029428;28;20505;-79
2021/03/26 03:23:48;;;;;;;20.83;16.03;;;6.50;90.10;;;;;;5027875;28;20038;-79
2021/03/26 03:26:42;;;;;;;24.92;17.05;;;6.40;90.20;;;;;;4983822;28;20390;-79
2021/03/26 03:29:12;;;;;;;20.67;15.40;;;6.40;90.30;;;;;;5039207;28;20029;-79
2021/03/26 03:31:40;;;;;;;25.80;17.83;;;6.40;90.40;;;;;;5022168;28;20034;-79
2021/03/26 03:34:15;;;;;;;26.80;18.10;;;6.40;90.40;;;;;;5025968;28;20088;-78
2021/03/26 03:36:50;;;;;;;25.77;17.83;;;6.40;90.80;;;;;;5022722;28;20041;-78
2021/03/26 03:39:27;;;;;;;27.17;18.60;;;6.30;90.50;;;;;;5026486;28;20811;-78
2021/03/26 03:42:01;;;;;;;26.70;17.77;;;6.30;90.50;;;;;;5035300;28;20048;-78
2021/03/26 03:45:00;;;;;;;27.48;19.17;;;6.40;90.70;;;;;;5025434;28;20045;-78
2021/03/26 03:47:33;;;;;;;28.85;20.35;;;6.30;90.80;;;;;;5016999;28;20474;-78
2021/03/26 03:50:07;;;;;;;28.52;21.10;;;6.30;90.90;;;;;;5026117;28;20523;-78
2021/03/26 03:52:38;;;;;;;28.92;20.42;;;6.30;90.90;;;;;;5011425;28;20591;-78
2021/03/26 03:55:19;;;;;;;32.63;21.45;;;6.30;91.30;;;;;;5022350;28;20072;-78
2021/03/26 03:58:17;;;;;;;28.88;21.38;;;6.30;91.20;;;;;;5015703;28;20075;-78
2021/03/26 04:01:08;;;;;;;30.30;20.85;;;6.20;91.20;;;;;;5020453;28;20053;-78
2021/03/26 04:03:47;;;;;;;33.35;21.48;;;6.20;91.40;;;;;;5018840;28;20061;-78
2021/03/26 04:06:21;;;;;;;30.42;21.55;;;6.20;91.50;;;;;;5026808;28;20065;-78
2021/03/26 04:08:49;;;;;;;30.25;22.05;;;6.30;91.50;;;;;;5021626;28;20045;-78
2021/03/26 04:11:35;;;;;;;33.83;23.48;;;6.30;91.60;;;;;;5020534;28;20045;-78
2021/03/26 04:14:07;;;;;;;31.27;22.48;;;6.30;91.60;;;;;;5032842;28;20053;-78
2021/03/26 04:16:35;;;;;;;31.48;23.88;;;6.30;91.70;;;;;;5022867;28;20128;-78
2021/03/26 04:19:07;;;;;;;36.05;24.00;;;6.30;91.80;;;;;;5021007;28;20108;-78
2021/03/26 04:21:41;;;;;;;36.30;24.58;;;6.40;91.90;;;;;;5019712;28;20036;-78
2021/03/26 04:24:28;;;;;;;35.80;24.60;;;6.40;91.90;;;;;;5033114;28;20149;-78
2021/03/26 04:27:25;;;;;;;34.83;24.63;;;6.40;92.30;;;;;;5025032;28;20034;-79
2021/03/26 04:30:13;;;;;;;37.53;24.75;;;6.50;92.30;;;;;;5005961;28;20050;-78
2021/03/26 04:32:39;;;;;;;39.42;27.48;;;6.50;92.50;;;;;;5030439;28;20128;-78
2021/03/26 04:35:10;;;;;;;38.08;26.60;;;6.50;92.30;;;;;;5017065;28;20466;-78
2021/03/26 04:37:41;;;;;;;35.20;26.13;;;6.50;92.40;;;;;;5029024;28;20053;-78
2021/03/26 04:40:44;;;;;;;36.05;27.08;;;6.60;92.50;;;;;;5036461;28;20058;-78
2021/03/26 04:43:20;;;;;;;37.80;26.17;;;6.50;92.50;;;;;;5004277;28;20053;-78
2021/03/26 04:45:46;;;;;;;35.70;26.48;;;6.60;92.80;;;;;;5018634;28;20049;-78
2021/03/26 04:48:36;;;;;;;34.60;26.15;;;6.60;92.60;;;;;;5042366;28;20060;-78
2021/03/26 04:51:09;;;;;;;40.35;27.65;;;6.60;92.60;;;;;;5038311;28;20037;-79
2021/03/26 04:54:00;;;;;;;37.42;27.70;;;6.60;92.80;;;;;;5023854;28;20211;-79
2021/03/26 04:56:30;;;;;;;37.42;28.88;;;6.70;92.80;;;;;;5021775;28;20033;-79
2021/03/26 04:58:59;;;;;;;37.85;28.00;;;6.60;92.90;;;;;;5028058;28;20053;-78
2021/03/26 05:01:27;;;;;;;37.35;27.52;;;6.70;92.90;;;;;;5023787;28;20036;-79
2021/03/26 05:04:05;;;;;;;32.75;26.67;;;6.70;92.80;;;;;;5022365;28;20038;-79
2021/03/26 05:06:35;;;;;;;35.40;25.40;;;6.70;93.20;;;;;;5019616;28;20536;-78
2021/03/26 05:09:10;;;;;;;38.63;28.00;;;6.70;92.80;;;;;;5022258;28;20053;-78
2021/03/26 05:11:41;;;;;;;34.50;27.60;;;6.80;92.80;;;;;;5021040;28;20361;-78
2021/03/26 05:14:14;;;;;;;36.05;26.15;;;6.80;92.80;;;;;;5023382;28;20063;-78
2021/03/26 05:16:53;;;;;;;35.05;27.77;;;6.80;92.80;;;;;;5034416;28;20632;-78
2021/03/26 05:19:23;;;;;;;33.70;26.50;;;6.80;92.80;;;;;;5030330;28;20029;-78
2021/03/26 05:22:05;;;;;;;35.40;25.75;;;6.80;92.80;;;;;;5021876;28;20420;-78
2021/03/26 05:24:39;;;;;;;32.70;25.30;;;6.90;92.90;;;;;;5019990;28;20120;-78
2021/03/26 05:27:08;;;;;;;36.13;27.65;;;6.90;92.80;;;;;;5022029;28;20096;-78
2021/03/26 05:29:34;;;;;;;34.92;27.80;;;6.90;93.10;;;;;;5026601;28;20050;-78
2021/03/26 05:32:14;;;;;;;34.85;25.80;;;6.90;92.80;;;;;;5020363;28;20152;-78
2021/03/26 05:34:49;;;;;;;37.15;27.40;;;7.00;92.90;;;;;;5024141;28;20072;-78
2021/03/26 05:37:37;;;;;;;36.00;25.67;;;7.00;92.80;;;;;;5017080;28;20095;-78
2021/03/26 05:40:38;;;;;;;37.53;27.50;;;7.00;93.00;;;;;;5019821;28;20445;-78
2021/03/26 05:43:59;;;;;;;35.13;25.88;;;7.00;92.90;;;;;;5012816;28;20057;-78
2021/03/26 05:47:13;;;;;;;38.80;27.13;;;7.10;93.00;;;;;;4979647;28;20249;-78
2021/03/26 05:49:53;;;;;;;34.72;26.33;;;7.00;93.10;;;;;;5020125;28;20441;-78
2021/03/26 05:52:38;;;;;;;38.47;27.60;;;7.10;93.00;;;;;;5020453;28;20486;-78
2021/03/26 05:55:48;;;;;;;35.42;26.17;;;7.10;93.10;;;;;;5024965;28;20123;-79
2021/03/26 05:58:43;;;;;;;37.00;27.05;;;7.10;93.30;;;;;;4963068;28;20046;-78
2021/03/26 06:01:23;;;;;;;40.25;27.02;;;7.10;93.10;;;;;;5029045;28;20038;-79
2021/03/26 06:04:10;;;;;;;36.22;27.17;;;7.20;93.20;;;;;;5020654;28;20053;-78
2021/03/26 06:07:13;;;;;;;38.97;27.98;;;7.20;93.30;;;;;;5041309;28;20045;-79
2021/03/26 06:09:58;;;;;;;38.35;29.38;;;7.20;93.80;;;;;;5021949;28;20061;-77
2021/03/26 06:13:05;;;;;;;40.78;30.63;;;7.20;93.80;;;;;;5016252;28;20062;-78
2021/03/26 06:15:52;;;;;;;41.10;28.67;;;7.30;94.30;;;;;;5019966;28;20042;-77
2021/03/26 06:18:36;;;;;;;41.20;30.48;;;7.30;94.60;;;;;;5020566;28;20049;-77
2021/03/26 06:21:25;;;;;;;42.77;30.93;;;7.30;94.40;;;;;;5017418;28;20454;-78
2021/03/26 06:24:23;;;;;;;46.05;31.77;;;7.30;94.80;;;;;;5012390;28;20729;-80
2021/03/26 06:27:02;;;;;;;48.88;33.65;;;7.30;95.20;;;;;;5020813;28;20133;-77
2021/03/26 06:29:31;;;;;;;46.78;33.05;;;7.30;95.30;;;;;;5029429;28;20188;-77
2021/03/26 06:32:13;;;;;;;50.55;35.03;;;7.20;95.40;;;;;;5020883;28;20104;-77
2021/03/26 06:34:50;;;;;;;50.22;35.60;;;7.20;95.60;;;;;;5033971;28;20064;-78
2021/03/26 06:37:54;;;;;;;55.38;34.78;;;7.20;95.80;;;;;;5019878;28;20034;-76
2021/03/26 06:40:52;;;;;;;54.65;36.25;;;7.20;96.10;;;;;;5020881;28;20160;-77
2021/03/26 06:43:41;;;;;;;56.40;37.05;;;7.20;96.30;;;;;;5026596;28;20037;-77
2021/03/26 06:46:24;;;;;;;54.25;36.13;;;7.20;96.40;;;;;;5028396;28;20498;-77
2021/03/26 06:49:04;;;;;;;45.78;32.38;;;7.20;96.40;;;;;;5021526;28;20235;-79
2021/03/26 06:52:15;;;;;;;52.17;35.90;;;7.20;96.50;;;;;;5017388;28;20093;-78
2021/03/26 06:54:59;;;;;;;53.40;36.13;;;7.30;96.70;;;;;;5005520;28;20062;-77
2021/03/26 06:57:44;;;;;;;51.80;34.53;;;7.30;96.90;;;;;;5043897;28;20062;-78
2021/03/26 07:00:10;;;;;;;49.70;35.55;;;7.20;96.90;;;;;;5031352;28;20124;-77
2021/03/26 07:02:45;;;;;;;53.75;35.80;;;7.30;97.00;;;;;;5019507;28;20033;-77
2021/03/26 07:05:13;;;;;;;;;;;7.30;97.20;;;;;;5014230;28;20517;-77
2021/03/26 07:08:11;;;;;;;50.53;33.83;;;7.30;97.50;;;;;;5027161;28;19917;-78
2021/03/26 07:11:18;;;;;;;58.08;37.20;;;7.30;97.50;;;;;;5022611;28;20442;-78
2021/03/26 07:14:09;;;;;;;60.25;38.35;;;7.30;97.50;;;;;;4996548;28;20074;-77
2021/03/26 07:17:05;;;;;;;56.95;36.90;;;7.30;97.50;;;;;;5018776;28;20037;-78
2021/03/26 07:20:16;;;;;;;61.33;38.13;;;7.40;97.60;;;;;;5021129;28;20045;-78
2021/03/26 07:23:20;;;;;;;52.67;35.45;;;7.40;97.70;;;;;;4996273;28;20642;-78
2021/03/26 07:25:58;;;;;;;49.92;36.00;;;7.40;97.70;;;;;;5015934;28;20053;-77
2021/03/26 07:28:34;;;;;;;58.10;37.45;;;7.40;97.80;;;;;;5015163;28;20112;-78
2021/03/26 07:31:23;;;;;;;60.67;38.47;;;7.50;97.80;;;;;;5013462;28;20038;-79
2021/03/26 07:34:07;;;;;;;58.42;39.03;;;7.50;97.70;;;;;;5019513;28;20124;-79
2021/03/26 07:36:44;;;;;;;49.25;33.28;;;7.60;97.70;;;;;;5022928;28;20148;-80
2021/03/26 07:39:18;;;;;;;50.03;35.42;;;7.60;97.60;;;;;;5025618;28;20053;-78
2021/03/26 07:42:23;;;;;;;48.35;34.30;;;7.70;97.60;;;;;;5020235;28;20056;-79
2021/03/26 07:45:10;;;;;;;49.42;35.17;;;7.70;97.40;;;;;;5017854;28;20058;-78
2021/03/26 07:47:43;;;;;;;53.90;36.10;;;7.80;97.40;;;;;;5013132;28;20137;-78
2021/03/26 07:50:15;;;;;;;53.65;36.63;;;7.90;97.40;;;;;;5036694;28;20103;-80
2021/03/26 07:53:09;;;;;;;55.35;37.17;;;7.90;97.40;;;;;;5034974;28;20056;-79
2021/03/26 07:55:38;;;;;;;50.72;36.47;;;8.10;97.40;;;;;;5019809;28;20037;-80
2021/03/26 07:58:29;;;;;;;49.28;35.47;;;8.10;97.30;;;;;;5030617;28;20061;-80
2021/03/26 08:01:43;;;;;;;49.75;34.42;;;8.10;97.20;;;;;;5021511;28;20053;-79
2021/03/26 08:04:17;;;;;;;46.28;32.72;;;8.20;97.00;;;;;;5012948;28;20151;-79
2021/03/26 08:07:40;;;;;;;47.03;33.80;;;8.30;97.00;;;;;;5021302;28;20084;-78
2021/03/26 08:10:08;;;;;;;51.78;34.58;;;8.30;96.80;;;;;;5010420;28;20073;-78
2021/03/26 08:12:50;;;;;;;44.78;32.67;;;8.40;96.90;;;;;;5005243;28;20038;-79
2021/03/26 08:15:34;;;;;;;46.65;33.33;;;8.40;96.80;;;;;;5021505;28;20053;-79
2021/03/26 08:18:08;;;;;;;41.95;30.35;;;8.50;96.60;;;;;;5019917;28;20044;-79
2021/03/26 08:20:48;;;;;;;42.53;32.43;;;8.60;96.40;;;;;;5023157;28;20038;-79
2021/03/26 08:23:34;;;;;;;40.03;29.83;;;8.70;96.50;;;;;;5021348;28;20038;-79
2021/03/26 08:26:19;;;;;;;46.47;31.73;;;8.70;96.30;;;;;;5037861;28;20054;-79
2021/03/26 08:29:28;;;;;;;43.35;30.65;;;8.80;96.10;;;;;;5032573;28;20065;-79
2021/03/26 08:32:19;;;;;;;53.58;36.78;;;8.80;96.00;;;;;;5022760;28;20062;-78
2021/03/26 08:34:45;;;;;;;43.35;30.02;;;8.90;95.90;;;;;;5017643;28;20053;-79
2021/03/26 08:37:31;;;;;;;37.90;29.63;;;8.90;95.90;;;;;;5027108;28;20084;-79
2021/03/26 08:39:59;;;;;;;44.38;30.35;;;9.10;95.60;;;;;;5016309;28;20054;-78
2021/03/26 08:42:38;;;;;;;39.88;28.70;;;9.20;95.70;;;;;;5028668;28;20065;-78
2021/03/26 08:45:13;;;;;;;38.00;29.95;;;9.30;95.10;;;;;;5039747;28;20382;-78
2021/03/26 08:47:57;;;;;;;35.00;27.92;;;9.40;95.10;;;;;;5019018;28;20045;-78
2021/03/26 08:50:46;;;;;;;37.72;28.70;;;9.50;95.10;;;;;;5037844;28;20144;-78
2021/03/26 08:53:25;;;;;;;33.65;25.83;;;9.60;94.40;;;;;;5024118;28;20081;-78
2021/03/26 08:56:00;;;;;;;36.65;28.63;;;9.80;94.50;;;;;;5021464;28;20041;-79
2021/03/26 08:58:57;;;;;;;35.13;26.58;;;9.80;94.60;;;;;;5017425;28;20516;-79
2021/03/26 09:01:44;;;;;;;33.08;25.88;;;10.00;94.10;;;;;;4994543;28;20164;-78
2021/03/26 09:04:39;;;;;;;33.90;25.35;;;10.10;93.30;;;;;;5016417;28;20486;-78
2021/03/26 09:07:10;;;;;;;35.08;26.58;;;10.20;93.60;;;;;;5027246;28;20053;-79
2021/03/26 09:09:41;;;;;;;34.58;26.27;;;10.30;93.80;;;;;;5016846;28;20048;-78
2021/03/26 09:12:14;;;;;;;40.55;28.52;;;10.40;93.10;;;;;;5029344;28;20038;-78
2021/03/26 09:15:17;;;;;;;34.25;26.08;;;10.60;92.70;;;;;;5019355;28;20049;-79
2021/03/26 09:17:48;;;;;;;30.23;23.77;;;10.80;91.80;;;;;;5027640;28;20091;-78
2021/03/26 09:20:32;;;;;;;32.15;24.80;;;10.80;92.00;;;;;;5025191;28;20049;-78
2021/03/26 09:23:19;;;;;;;32.50;23.75;;;11.00;91.40;;;;;;5028410;28;20046;-78
2021/03/26 09:26:27;;;;;;;27.92;22.83;;;11.10;91.60;;;;;;5018497;28;20029;-79
2021/03/26 09:28:57;;;;;;;31.92;24.13;;;11.30;90.10;;;;;;5022576;28;20053;-79
2021/03/26 09:31:46;;;;;;;31.25;23.92;;;11.50;91.20;;;;;;5026382;28;20037;-79
2021/03/26 09:34:31;;;;;;;31.55;23.88;;;11.70;90.10;;;;;;5028782;28;20050;-79
2021/03/26 09:37:19;;;;;;;26.73;22.23;;;11.80;88.80;;;;;;5016934;28;20053;-78
2021/03/26 09:39:50;;;;;;;29.58;22.65;;;12.00;90.10;;;;;;5040560;28;20118;-78
2021/03/26 09:42:38;;;;;;;27.20;22.67;;;12.30;90.10;;;;;;5037337;28;20401;-78
2021/03/26 09:45:11;;;;;;;28.55;21.52;;;12.40;86.70;;;;;;5027939;28;20401;-77
2021/03/26 09:48:18;;;;;;;27.65;21.20;;;12.60;87.40;;;;;;5015235;28;20197;-79
2021/03/26 09:51:02;;;;;;;28.90;21.50;;;12.70;83.80;;;;;;4969832;28;20061;-78
2021/03/26 09:53:33;;;;;;;27.83;21.75;;;12.90;84.10;;;;;;4981060;28;20067;-80
2021/03/26 09:56:17;;;;;;;26.10;20.67;;;12.90;83.80;;;;;;5007783;28;20053;-80
2021/03/26 09:59:01;;;;;;;27.05;21.17;;;12.90;83.20;;;;;;5026619;28;20057;-78
2021/03/26 10:01:41;;;;;;;25.08;18.63;;;12.90;82.00;;;;;;5026169;28;20049;-80
2021/03/26 10:04:22;;;;;;;26.23;19.35;;;12.90;81.20;;;;;;5031652;28;20046;-80
2021/03/26 10:07:36;;;;;;;24.55;19.35;;;13.10;81.70;;;;;;5020777;28;20049;-80
2021/03/26 10:12:54;;;;;;;25.90;19.90;;;13.30;81.30;;;;;;5026133;28;20045;-80
2021/03/26 10:15:35;;;;;;;23.67;17.15;;;13.50;80.60;;;;;;5025141;28;20049;-80
2021/03/26 10:18:20;;;;;;;21.20;17.13;;;13.60;79.80;;;;;;5040086;28;20060;-79
2021/03/26 10:21:00;;;;;;;19.08;15.50;;;13.70;79.20;;;;;;5030014;28;20061;-81
2021/03/26 10:23:49;;;;;;;18.90;13.82;;;13.90;78.20;;;;;;5027902;28;20480;-80
2021/03/26 10:26:22;;;;;;;21.30;14.98;;;13.90;76.70;;;;;;5028109;28;20084;-80
2021/03/26 10:28:54;;;;;;;18.85;14.13;;;14.10;73.40;;;;;;5021484;28;20045;-80
2021/03/26 10:31:30;;;;;;;15.77;12.05;;;14.00;74.50;;;;;;5045617;28;20488;-80
2021/03/26 10:34:06;;;;;;;17.83;11.25;;;14.10;72.10;;;;;;5019924;28;20132;-80
2021/03/26 10:36:54;;;;;;;14.90;11.32;;;14.30;72.00;;;;;;5035021;28;20037;-81
2021/03/26 10:39:31;;;;;;;12.45;7.57;;;14.40;72.60;;;;;;5018966;28;20650;-80
2021/03/26 10:42:19;;;;;;;15.45;9.98;;;14.50;72.30;;;;;;5025910;28;20084;-80
2021/03/26 10:45:18;;;;;;;16.20;9.40;;;14.50;67.30;;;;;;5020721;28;20127;-80
2021/03/26 10:48:30;;;;;;;11.73;8.55;;;14.50;66.20;;;;;;5018563;28;20088;-80
2021/03/26 10:51:31;;;;;;;13.18;9.68;;;14.60;64.70;;;;;;5021901;28;20057;-81
2021/03/26 10:54:02;;;;;;;12.70;7.85;;;14.60;67.10;;;;;;5024900;28;20100;-80
2021/03/26 10:56:30;;;;;;;12.82;8.88;;;14.70;67.20;;;;;;5027776;28;20049;-80
2021/03/26 10:59:04;;;;;;;12.48;8.82;;;14.80;67.90;;;;;;5017361;28;20041;-80
2021/03/26 11:01:38;;;;;;;14.13;10.38;;;14.90;64.50;;;;;;5026002;28;20041;-79
2021/03/26 11:04:18;;;;;;;14.07;9.63;;;14.90;64.30;;;;;;5038720;28;20432;-79
2021/03/26 11:06:49;;;;;;;13.82;9.55;;;14.90;65.00;;;;;;5027733;28;20057;-79
2021/03/26 11:09:21;;;;;;;13.60;10.10;;;14.90;65.50;;;;;;5015822;28;20086;-79
2021/03/26 11:12:18;;;;;;;15.55;10.38;;;14.90;64.10;;;;;;5026053;28;20188;-81
2021/03/26 11:15:02;;;;;;;12.10;9.88;;;15.00;63.70;;;;;;5016182;28;20492;-80
2021/03/26 11:17:47;;;;;;;12.65;9.45;;;15.10;62.40;;;;;;5028928;28;20100;-80
2021/03/26 11:20:30;;;;;;;15.73;9.18;;;15.10;63.70;;;;;;5025109;28;20058;-80
2021/03/26 11:23:15;;;;;;;13.73;9.93;;;15.20;62.70;;;;;;5011571;28;20046;-80
2021/03/26 11:25:46;;;;;;;13.77;9.80;;;15.30;62.30;;;;;;5014512;28;20049;-79
2021/03/26 11:28:29;;;;;;;13.40;9.38;;;15.40;62.40;;;;;;5024595;28;20073;-79
2021/03/26 11:31:28;;;;;;;12.15;9.35;;;15.50;61.40;;;;;;5019913;28;20041;-80
2021/03/26 11:34:34;;;;;;;11.77;9.15;;;15.60;60.60;;;;;;5021710;28;20072;-80
2021/03/26 11:37:07;;;;;;;15.75;8.95;;;15.50;59.90;;;;;;5017884;28;20093;-80
2021/03/26 11:39:50;;;;;;;13.02;9.07;;;15.50;60.40;;;;;;5024056;28;20065;-80
2021/03/26 11:42:15;;;;;;;12.93;9.07;;;15.40;59.80;;;;;;5032182;28;20713;-80
2021/03/26 11:45:14;;;;;;;14.68;10.63;;;15.20;60.60;;;;;;5028473;28;20029;-80
2021/03/26 11:47:59;;;;;;;12.68;8.45;;;15.20;59.10;;;;;;5025876;28;20073;-81
2021/03/26 11:50:37;;;;;;;12.90;9.30;;;15.20;61.10;;;;;;5016849;28;20044;-82
2021/03/26 11:57:09;;;;;;;11.25;7.13;;;15.40;58.90;;;;;;5016381;28;20057;-80
2021/03/26 12:00:09;;;;;;;12.05;6.75;;;15.40;56.50;;;;;;5017687;28;20569;-81
2021/03/26 12:02:51;;;;;;;11.90;7.82;;;15.40;57.30;;;;;;5019397;28;20107;-80
2021/03/26 12:05:42;;;;;;;12.50;6.97;;;15.50;59.30;;;;;;5026107;28;20098;-79
2021/03/26 12:08:07;;;;;;;8.85;6.32;;;15.50;58.50;;;;;;5021432;28;20505;-80
2021/03/26 12:10:50;;;;;;;10.27;6.25;;;15.40;58.80;;;;;;5018718;28;20041;-79
2021/03/26 12:13:16;;;;;;;8.82;5.28;;;15.30;56.90;;;;;;5021009;28;20517;-79
2021/03/26 12:16:07;;;;;;;10.10;5.68;;;15.40;58.50;;;;;;5026449;28;20081;-80
2021/03/26 12:18:58;;;;;;;;;;;15.50;56.70;;;;;;5022199;28;20037;-82
2021/03/26 12:21:48;;;;;;;10.98;4.30;;;15.40;53.90;;;;;;5026249;28;19952;-80
2021/03/26 12:24:35;;;;;;;9.93;5.00;;;15.30;57.30;;;;;;5030481;28;20041;-79
2021/03/26 12:27:33;;;;;;;7.85;4.22;;;15.30;56.70;;;;;;5018200;28;20049;-79
2021/03/26 12:30:11;;;;;;;9.38;4.80;;;15.20;58.10;;;;;;5021481;28;20365;-80
2021/03/26 12:32:49;;;;;;;6.15;3.53;;;15.20;57.20;;;;;;5022743;28;20091;-79
2021/03/26 12:35:27;;;;;;;6.72;3.55;;;15.20;56.10;;;;;;5025950;28;20684;-80
2021/03/26 12:38:18;;;;;;;12.43;4.88;;;15.30;57.20;;;;;;5022509;28;20038;-80
2021/03/26 12:41:14;;;;;;;9.52;4.55;;;15.40;56.70;;;;;;5015782;28;20054;-79
2021/03/26 12:43:56;;;;;;;9.63;4.53;;;15.60;56.40;;;;;;5011520;28;20106;-78
2021/03/26 12:47:00;;;;;;;8.88;4.22;;;15.70;57.00;;;;;;5024694;28;20042;-78
2021/03/26 12:49:39;;;;;;;9.27;4.78;;;15.80;56.40;;;;;;5029692;28;20137;-78
2021/03/26 12:52:31;;;;;;;10.00;5.07;;;15.80;56.70;;;;;;5026989;28;20386;-80
2021/03/26 12:55:36;;;;;;;7.28;5.30;;;15.70;56.00;;;;;;5017791;28;20053;-79
2021/03/26 12:58:43;;;;;;;6.68;3.67;;;15.60;55.30;;;;;;4980753;28;20077;-78
2021/03/26 13:01:15;;;;;;;7.10;4.03;;;15.60;57.30;;;;;;5024281;28;20029;-79
2021/03/26 13:03:54;;;;;;;8.60;4.25;;;15.50;57.60;;;;;;5029676;28;20141;-78
2021/03/26 13:06:37;;;;;;;8.13;4.15;;;15.60;56.70;;;;;;5025783;28;20545;-79
2021/03/26 13:09:30;;;;;;;6.78;3.85;;;15.60;55.20;;;;;;5016562;28;20038;-79
2021/03/26 13:12:07;;;;;;;6.97;3.13;;;15.50;55.80;;;;;;5024145;28;20038;-79
2021/03/26 13:14:50;;;;;;;7.07;3.08;;;15.50;55.20;;;;;;5019452;28;20539;-79
2021/03/26 13:17:25;;;;;;;6.32;2.55;;;15.50;55.70;;;;;;5028211;28;20069;-77
2021/03/26 13:20:02;;;;;;;7.10;2.92;;;15.50;55.10;;;;;;5019978;28;20052;-79
2021/03/26 13:22:53;;;;;;;6.45;3.00;;;15.60;54.90;;;;;;5048678;28;20067;-81
2021/03/26 13:25:40;;;;;;;7.03;3.47;;;15.50;53.40;;;;;;5037392;28;20077;-80
2021/03/26 13:28:27;;;;;;;7.53;3.22;;;15.30;54.90;;;;;;5027345;28;20079;-81
2021/03/26 13:31:25;;;;;;;6.55;3.20;;;15.20;55.10;;;;;;5019937;28;20426;-81
2021/03/26 13:34:06;;;;;;;5.97;2.83;;;15.20;55.40;;;;;;5023086;28;20138;-82
2021/03/26 13:36:44;;;;;;;8.02;2.47;;;15.30;55.10;;;;;;5027755;28;20060;-81
2021/03/26 13:39:16;;;;;;;9.35;3.40;;;15.40;55.00;;;;;;5024424;28;20053;-80
2021/03/26 13:42:02;;;;;;;6.75;2.92;;;15.30;55.90;;;;;;5021744;28;20038;-80
2021/03/26 13:44:51;;;;;;;5.70;3.10;;;15.40;55.00;;;;;;5040131;28;20445;-79
2021/03/26 13:47:29;;;;;;;5.60;2.65;;;15.20;53.90;;;;;;5046224;28;20499;-80
2021/03/26 13:50:20;;;;;;;6.35;3.20;;;15.20;55.40;;;;;;5032693;28;20182;-79
2021/03/26 13:53:07;;;;;;;8.68;3.20;;;15.20;55.80;;;;;;5026557;28;20128;-80
2021/03/26 13:55:50;;;;;;;7.47;3.00;;;15.40;56.50;;;;;;5024649;28;20116;-80